createdAt,value
2019-04-28T00:00:12.453Z,102038.20
2019-04-28T00:01:17.633Z,102032.30
2019-04-28T00:02:22.362Z,102039.39
2019-04-28T00:03:24.005Z,102035.86
2019-04-28T00:04:25.390Z,102031.83
2019-04-28T00:05:26.899Z,102032.81
2019-04-28T00:06:28.276Z,102032.46
2019-04-28T00:07:29.773Z,102034.79
2019-04-28T00:08:31.857Z,102037.84
2019-04-28T00:09:33.457Z,102036.49
2019-04-28T00:10:34.875Z,102039.18
2019-04-28T00:11:36.260Z,102040.53
2019-04-28T00:12:37.750Z,102033.80
2019-04-28T00:13:39.135Z,102031.59
2019-04-28T00:14:42.222Z,102035.15
2019-04-28T00:15:44.736Z,102039.18
2019-04-28T00:16:46.107Z,102046.89
2019-04-28T00:17:47.509Z,102044.20
2019-04-28T00:18:48.886Z,102039.30
2019-04-28T00:19:51.519Z,102047.88
2019-04-28T00:20:57.591Z,102053.26
2019-04-28T00:22:17.831Z,102045.66
2019-04-28T00:23:37.759Z,102049.22
2019-04-28T00:24:43.821Z,102043.69
2019-04-28T00:26:02.333Z,102051.05
2019-04-28T00:27:04.430Z,102049.97
2019-04-28T00:28:05.806Z,102050.13
2019-04-28T00:29:07.300Z,102048.19
2019-04-28T00:30:11.731Z,102051.02
2019-04-28T00:31:13.197Z,102051.63
2019-04-28T00:32:14.678Z,102058.22
2019-04-28T00:33:16.076Z,102055.53
2019-04-28T00:34:17.456Z,102051.98
2019-04-28T00:35:18.946Z,102061.39
2019-04-28T00:36:21.595Z,102060.05
2019-04-28T00:37:24.989Z,102056.02
2019-04-28T00:38:26.374Z,102061.78
2019-04-28T00:39:27.860Z,102059.09
2019-04-28T00:40:29.493Z,102063.13
2019-04-28T00:41:31.046Z,102063.13
2019-04-28T00:42:32.546Z,102061.90
2019-04-28T00:43:33.944Z,102058.22
2019-04-28T00:44:35.424Z,102060.05
2019-04-28T00:45:36.928Z,102066.17
2019-04-28T00:46:40.968Z,102063.13
2019-04-28T00:47:42.827Z,102064.83
2019-04-28T00:48:44.470Z,102069.69
2019-04-28T00:49:45.881Z,102068.71
2019-04-28T00:50:47.416Z,102063.33
2019-04-28T00:51:48.842Z,102067.00
2019-04-28T00:52:51.823Z,102070.20
2019-04-28T00:53:53.422Z,102065.19
2019-04-28T00:54:54.920Z,102073.09
2019-04-28T00:55:56.317Z,102073.97
2019-04-28T00:56:57.845Z,102078.36
2019-04-28T00:58:00.896Z,102073.97
2019-04-28T00:59:02.475Z,102083.02
2019-04-28T01:00:05.687Z,102079.34
2019-04-28T01:01:27.169Z,102085.71
2019-04-28T01:02:31.192Z,102081.67
2019-04-28T01:03:32.792Z,102082.75
2019-04-28T01:04:34.288Z,102082.03
2019-04-28T01:05:35.759Z,102079.61
2019-04-28T01:06:37.232Z,102078.75
2019-04-28T01:07:38.618Z,102078.39
2019-04-28T01:08:41.882Z,102090.48
2019-04-28T01:09:43.366Z,102091.36
2019-04-28T01:10:44.749Z,102086.58
2019-04-28T01:11:46.240Z,102085.23
2019-04-28T01:12:47.639Z,102088.88
2019-04-28T01:13:49.019Z,102091.56
2019-04-28T01:14:54.514Z,102088.03
2019-04-28T01:16:01.207Z,102096.58
2019-04-28T01:17:04.512Z,102092.19
2019-04-28T01:18:14.894Z,102096.22
2019-04-28T01:19:20.106Z,102095.86
2019-04-28T01:20:23.183Z,102094.66
2019-04-28T01:21:26.473Z,102101.86
2019-04-28T01:22:29.959Z,102099.44
2019-04-28T01:23:31.278Z,102098.25
2019-04-28T01:24:32.761Z,102106.78
2019-04-28T01:25:34.259Z,102099.23
2019-04-28T01:26:35.630Z,102103.89
2019-04-28T01:27:40.300Z,102104.25
2019-04-28T01:28:42.733Z,102101.20
2019-04-28T01:29:44.125Z,102097.38
2019-04-28T01:30:50.191Z,102097.38
2019-04-28T01:32:02.332Z,102105.09
2019-04-28T01:33:09.614Z,102108.49
2019-04-28T01:34:21.886Z,102106.67
2019-04-28T01:35:24.258Z,102109.83
2019-04-28T01:36:25.648Z,102113.87
2019-04-28T01:37:27.107Z,102111.80
2019-04-28T01:38:30.283Z,102117.19
2019-04-28T01:39:31.795Z,102111.09
2019-04-28T01:40:33.204Z,102119.51
2019-04-28T01:41:34.618Z,102115.48
2019-04-28T01:42:36.160Z,102118.52
2019-04-28T01:43:37.572Z,102126.11
2019-04-28T01:44:39.556Z,102121.72
2019-04-28T01:45:41.647Z,102121.58
2019-04-28T01:46:43.082Z,102125.61
2019-04-28T01:47:44.458Z,102124.63
2019-04-28T01:48:45.856Z,102122.80
2019-04-28T01:49:47.242Z,102126.32
2019-04-28T01:50:49.975Z,102131.58
2019-04-28T01:52:00.513Z,102130.72
2019-04-28T01:53:01.755Z,102134.75
2019-04-28T01:54:03.364Z,102130.23
2019-04-28T01:55:06.088Z,102137.80
2019-04-28T01:56:07.574Z,102136.60
2019-04-28T01:57:10.154Z,102128.53
2019-04-28T01:58:11.656Z,102137.59
2019-04-28T01:59:13.058Z,102129.64
2019-04-28T02:00:22.857Z,102136.36
2019-04-28T02:01:20.320Z,102137.70
2019-04-28T02:02:21.896Z,102135.16
2019-04-28T02:03:23.315Z,102140.39
2019-04-28T02:04:24.720Z,102140.03
2019-04-28T02:05:26.151Z,102130.27
2019-04-28T02:06:27.644Z,102136.14
2019-04-28T02:07:30.600Z,102139.67
2019-04-28T02:08:32.368Z,102146.03
2019-04-28T02:09:33.765Z,102137.61
2019-04-28T02:10:35.176Z,102143.34
2019-04-28T02:11:36.583Z,102144.83
2019-04-28T02:12:37.987Z,102145.31
2019-04-28T02:13:39.921Z,102134.22
2019-04-28T02:14:41.516Z,102149.34
2019-04-28T02:15:42.913Z,102145.45
2019-04-28T02:16:44.292Z,102146.80
2019-04-28T02:17:45.761Z,102145.58
2019-04-28T02:18:47.592Z,102146.44
2019-04-28T02:19:48.991Z,102146.44
2019-04-28T02:20:52.312Z,102146.08
2019-04-28T02:21:55.626Z,102154.63
2019-04-28T02:22:59.911Z,102150.95
2019-04-28T02:24:19.994Z,102157.67
2019-04-28T02:25:21.515Z,102162.06
2019-04-28T02:26:22.980Z,102159.73
2019-04-28T02:27:24.654Z,102159.37
2019-04-28T02:28:26.149Z,102159.88
2019-04-28T02:29:30.034Z,102157.31
2019-04-28T02:30:42.322Z,102160.87
2019-04-28T02:31:35.136Z,102163.91
2019-04-28T02:32:36.542Z,102165.37
2019-04-28T02:33:40.606Z,102169.77
2019-04-28T02:34:42.099Z,102162.69
2019-04-28T02:35:43.610Z,102169.77
2019-04-28T02:36:45.035Z,102167.59
2019-04-28T02:37:46.498Z,102168.78
2019-04-28T02:38:47.983Z,102170.13
2019-04-28T02:39:50.513Z,102169.14
2019-04-28T02:40:52.221Z,102166.96
2019-04-28T02:41:53.643Z,102173.53
2019-04-28T02:42:55.107Z,102176.22
2019-04-28T02:43:56.615Z,102172.55
2019-04-28T02:45:00.466Z,102182.68
2019-04-28T02:46:02.199Z,102185.36
2019-04-28T02:47:03.721Z,102183.55
2019-04-28T02:48:07.029Z,102190.27
2019-04-28T02:49:10.406Z,102191.97
2019-04-28T02:50:22.781Z,102184.38
2019-04-28T02:51:40.990Z,102191.97
2019-04-28T02:53:02.543Z,102190.12
2019-04-28T02:54:04.917Z,102195.86
2019-04-28T02:55:06.718Z,102198.19
2019-04-28T02:56:11.069Z,102196.74
2019-04-28T02:57:11.487Z,102199.22
2019-04-28T02:58:13.566Z,102196.64
2019-04-28T02:59:17.646Z,102194.94
2019-04-28T03:00:21.639Z,102202.02
2019-04-28T03:01:26.439Z,102200.31
2019-04-28T03:02:25.882Z,102199.84
2019-04-28T03:03:27.382Z,102206.05
2019-04-28T03:04:30.770Z,102203.00
2019-04-28T03:05:33.520Z,102204.82
2019-04-28T03:06:35.250Z,102206.56
2019-04-28T03:07:36.641Z,102205.69
2019-04-28T03:08:40.270Z,102203.98
2019-04-28T03:09:41.362Z,102210.70
2019-04-28T03:10:43.758Z,102205.33
2019-04-28T03:11:45.130Z,102209.84
2019-04-28T03:12:46.558Z,102213.39
2019-04-28T03:13:50.858Z,102215.36
2019-04-28T03:14:51.587Z,102212.67
2019-04-28T03:15:52.994Z,102211.33
2019-04-28T03:16:54.402Z,102210.81
2019-04-28T03:17:55.812Z,102221.09
2019-04-28T03:18:57.335Z,102215.36
2019-04-28T03:20:01.036Z,102216.19
2019-04-28T03:21:04.407Z,102214.85
2019-04-28T03:22:06.090Z,102220.59
2019-04-28T03:23:11.491Z,102220.11
2019-04-28T03:24:13.355Z,102215.57
2019-04-28T03:25:16.690Z,102217.42
2019-04-28T03:26:30.865Z,102223.16
2019-04-28T03:27:40.476Z,102228.80
2019-04-28T03:28:51.346Z,102227.30
2019-04-28T03:30:13.301Z,102220.47
2019-04-28T03:32:04.145Z,102230.24
2019-04-28T03:32:45.789Z,102227.44
2019-04-28T03:33:47.303Z,102231.95
2019-04-28T03:34:44.570Z,102239.29
2019-04-28T03:35:46.149Z,102234.53
2019-04-28T03:36:47.548Z,102243.94
2019-04-28T03:37:51.295Z,102241.25
2019-04-28T03:38:53.085Z,102240.38
2019-04-28T03:39:54.807Z,102239.41
2019-04-28T03:40:56.309Z,102244.66
2019-04-28T03:42:00.070Z,102246.37
2019-04-28T03:43:03.175Z,102242.70
2019-04-28T03:44:04.483Z,102241.35
2019-04-28T03:45:07.882Z,102240.37
2019-04-28T03:46:16.780Z,102246.11
2019-04-28T03:47:21.061Z,102243.78
2019-04-28T03:48:22.106Z,102245.48
2019-04-28T03:49:33.477Z,102245.84
2019-04-28T03:50:34.890Z,102246.11
2019-04-28T03:51:36.403Z,102242.80
2019-04-28T03:52:37.781Z,102249.16
2019-04-28T03:53:41.055Z,102245.75
2019-04-28T03:54:42.463Z,102248.95
2019-04-28T03:55:43.861Z,102249.78
2019-04-28T03:56:45.277Z,102256.50
2019-04-28T03:57:46.786Z,102254.80
2019-04-28T03:58:50.418Z,102254.80
2019-04-28T03:59:51.657Z,102259.55
2019-04-28T04:00:53.145Z,102258.71
2019-04-28T04:01:59.372Z,102254.31
2019-04-28T04:03:00.714Z,102263.58
2019-04-28T04:04:03.555Z,102263.58
2019-04-28T04:05:05.777Z,102262.86
2019-04-28T04:06:07.270Z,102266.27
2019-04-28T04:07:11.113Z,102265.91
2019-04-28T04:08:12.144Z,102271.64
2019-04-28T04:09:13.621Z,102267.76
2019-04-28T04:10:30.710Z,102274.95
2019-04-28T04:11:34.082Z,102276.66
2019-04-28T04:12:43.482Z,102278.25
2019-04-28T04:14:03.465Z,102278.25
2019-04-28T04:15:25.401Z,102274.70
2019-04-28T04:16:34.861Z,102278.61
2019-04-28T04:17:41.098Z,102283.99
2019-04-28T04:18:53.206Z,102286.42
2019-04-28T04:19:52.710Z,102283.02
2019-04-28T04:20:54.106Z,102284.36
2019-04-28T04:21:55.736Z,102284.00
2019-04-28T04:22:57.149Z,102280.95
2019-04-28T04:24:00.863Z,102282.30
2019-04-28T04:25:01.964Z,102279.86
2019-04-28T04:26:03.548Z,102280.69
2019-04-28T04:27:04.948Z,102279.70
2019-04-28T04:28:06.333Z,102276.55
2019-04-28T04:29:10.044Z,102276.41
2019-04-28T04:30:11.045Z,102280.80
2019-04-28T04:31:12.550Z,102280.69
2019-04-28T04:32:22.955Z,102277.84
2019-04-28T04:33:17.257Z,102283.73
2019-04-28T04:34:20.214Z,102282.24
2019-04-28T04:35:21.866Z,102281.77
2019-04-28T04:36:23.249Z,102280.79
2019-04-28T04:37:24.638Z,102278.09
2019-04-28T04:38:27.131Z,102277.59
2019-04-28T04:39:30.371Z,102283.84
2019-04-28T04:40:32.115Z,102285.03
2019-04-28T04:41:33.699Z,102280.89
2019-04-28T04:42:35.083Z,102282.23
2019-04-28T04:43:36.471Z,102280.02
2019-04-28T04:44:41.290Z,102284.77
2019-04-28T04:45:41.137Z,102286.48
2019-04-28T04:46:42.533Z,102289.17
2019-04-28T04:47:43.932Z,102285.14
2019-04-28T04:48:45.513Z,102289.92
2019-04-28T04:49:46.932Z,102288.70
2019-04-28T04:50:50.875Z,102286.88
2019-04-28T04:51:51.662Z,102289.09
2019-04-28T04:52:53.526Z,102284.66
2019-04-28T04:53:54.932Z,102293.12
2019-04-28T04:54:56.332Z,102291.38
2019-04-28T04:55:57.709Z,102292.25
2019-04-28T04:57:00.042Z,102300.32
2019-04-28T04:58:01.492Z,102294.47
2019-04-28T04:59:03.010Z,102299.84
2019-04-28T05:00:09.892Z,102295.42
2019-04-28T05:01:12.882Z,102297.63
2019-04-28T05:02:29.291Z,102297.63
2019-04-28T05:03:24.164Z,102294.94
2019-04-28T05:04:30.488Z,102303.01
2019-04-28T05:05:33.788Z,102297.23
2019-04-28T05:06:41.833Z,102296.88
2019-04-28T05:07:43.240Z,102304.94
2019-04-28T05:08:44.619Z,102303.59
2019-04-28T05:09:46.093Z,102307.77
2019-04-28T05:10:47.504Z,102298.98
2019-04-28T05:11:49.912Z,102304.72
2019-04-28T05:12:51.790Z,102310.58
2019-04-28T05:13:53.345Z,102303.49
2019-04-28T05:14:54.759Z,102306.55
2019-04-28T05:15:56.290Z,102307.05
2019-04-28T05:16:57.666Z,102314.61
2019-04-28T05:18:00.388Z,102318.64
2019-04-28T05:19:01.832Z,102320.34
2019-04-28T05:20:04.930Z,102314.61
2019-04-28T05:21:06.317Z,102319.15
2019-04-28T05:22:10.068Z,102324.89
2019-04-28T05:23:13.246Z,102326.34
2019-04-28T05:24:17.486Z,102319.26
2019-04-28T05:25:24.647Z,102322.31
2019-04-28T05:26:27.140Z,102326.34
2019-04-28T05:27:30.013Z,102325.88
2019-04-28T05:28:36.447Z,102323.80
2019-04-28T05:29:35.096Z,102319.88
2019-04-28T05:30:39.821Z,102322.93
2019-04-28T05:31:40.189Z,102325.26
2019-04-28T05:32:45.508Z,102320.50
2019-04-28T05:33:45.129Z,102320.50
2019-04-28T05:34:48.019Z,102321.37
2019-04-28T05:35:50.151Z,102325.15
2019-04-28T05:36:52.590Z,102329.55
2019-04-28T05:37:53.964Z,102326.86
2019-04-28T05:38:55.451Z,102329.19
2019-04-28T05:39:56.948Z,102330.16
2019-04-28T05:41:00.312Z,102333.83
2019-04-28T05:42:01.716Z,102330.31
2019-04-28T05:43:03.102Z,102335.18
2019-04-28T05:44:04.691Z,102344.22
2019-04-28T05:45:06.671Z,102340.70
2019-04-28T05:46:08.059Z,102338.01
2019-04-28T05:47:09.949Z,102338.84
2019-04-28T05:48:11.481Z,102342.04
2019-04-28T05:49:14.779Z,102345.70
2019-04-28T05:50:19.655Z,102349.75
2019-04-28T05:51:25.872Z,102356.94
2019-04-28T05:52:32.215Z,102358.78
2019-04-28T05:53:35.536Z,102358.28
2019-04-28T05:54:44.878Z,102361.95
2019-04-28T05:55:50.158Z,102363.91
2019-04-28T05:57:05.445Z,102369.28
2019-04-28T05:58:09.794Z,102368.92
2019-04-28T05:59:15.993Z,102367.07
2019-04-28T06:00:31.362Z,102361.48
2019-04-28T06:01:34.638Z,102372.34
2019-04-28T06:02:53.420Z,102368.30
2019-04-28T06:03:44.457Z,102371.13
2019-04-28T06:04:45.865Z,102371.24
2019-04-28T06:05:47.266Z,102377.23
2019-04-28T06:06:50.570Z,102375.05
2019-04-28T06:07:56.701Z,102373.34
2019-04-28T06:09:00.036Z,102378.22
2019-04-28T06:10:01.531Z,102378.11
2019-04-28T06:11:04.772Z,102387.88
2019-04-28T06:12:10.179Z,102380.54
2019-04-28T06:13:11.341Z,102380.29
2019-04-28T06:14:12.767Z,102386.14
2019-04-28T06:15:14.148Z,102376.12
2019-04-28T06:16:15.542Z,102378.80
2019-04-28T06:17:16.918Z,102384.30
2019-04-28T06:18:18.307Z,102381.35
2019-04-28T06:19:20.241Z,102381.45
2019-04-28T06:20:21.784Z,102379.53
2019-04-28T06:21:23.172Z,102387.23
2019-04-28T06:22:24.559Z,102384.14
2019-04-28T06:23:25.946Z,102381.70
2019-04-28T06:24:27.373Z,102389.87
2019-04-28T06:25:28.748Z,102387.30
2019-04-28T06:26:30.144Z,102391.07
2019-04-28T06:27:32.793Z,102389.83
2019-04-28T06:28:34.326Z,102389.57
2019-04-28T06:29:35.741Z,102385.64
2019-04-28T06:30:37.135Z,102392.47
2019-04-28T06:31:38.524Z,102392.56
2019-04-28T06:32:39.907Z,102391.36
2019-04-28T06:33:41.293Z,102389.13
2019-04-28T06:34:42.693Z,102394.61
2019-04-28T06:35:44.072Z,102393.84
2019-04-28T06:36:45.475Z,102392.59
2019-04-28T06:37:46.854Z,102393.20
2019-04-28T06:38:49.471Z,102394.64
2019-04-28T06:39:50.884Z,102387.17
2019-04-28T06:40:52.395Z,102390.95
2019-04-28T06:41:53.809Z,102384.45
2019-04-28T06:42:55.218Z,102392.27
2019-04-28T06:43:56.628Z,102396.55
2019-04-28T06:44:58.053Z,102388.72
2019-04-28T06:45:59.433Z,102394.31
2019-04-28T06:47:00.839Z,102389.17
2019-04-28T06:48:02.415Z,102392.95
2019-04-28T06:49:04.015Z,102391.81
2019-04-28T06:50:05.804Z,102396.45
2019-04-28T06:51:07.217Z,102398.52
2019-04-28T06:52:08.633Z,102397.89
2019-04-28T06:53:10.146Z,102401.19
2019-04-28T06:54:11.573Z,102398.34
2019-04-28T06:55:13.173Z,102396.88
2019-04-28T06:56:14.660Z,102402.83
2019-04-28T06:57:18.044Z,102405.77
2019-04-28T06:58:19.423Z,102399.75
2019-04-28T06:59:20.821Z,102398.77
2019-04-28T07:00:22.338Z,102406.69
2019-04-28T07:01:23.745Z,102406.94
2019-04-28T07:03:27.508Z,102415.59
2019-04-28T07:04:29.027Z,102412.30
2019-04-28T07:05:30.469Z,102412.14
2019-04-28T07:06:31.841Z,102412.38
2019-04-28T07:07:33.340Z,102413.09
2019-04-28T07:08:34.821Z,102418.33
2019-04-28T07:09:36.326Z,102415.52
2019-04-28T07:10:37.714Z,102415.88
2019-04-28T07:11:39.280Z,102412.20
2019-04-28T07:12:40.692Z,102411.69
2019-04-28T07:13:42.095Z,102416.95
2019-04-28T07:14:43.520Z,102422.70
2019-04-28T07:15:44.947Z,102418.51
2019-04-28T07:16:46.328Z,102427.83
2019-04-28T07:17:47.729Z,102428.19
2019-04-28T07:18:49.109Z,102426.83
2019-04-28T07:19:58.317Z,102431.23
2019-04-28T07:21:01.641Z,102434.92
2019-04-28T07:22:07.479Z,102432.23
2019-04-28T07:23:10.702Z,102439.32
2019-04-28T07:24:12.226Z,102434.92
2019-04-28T07:25:13.636Z,102436.90
2019-04-28T07:26:15.029Z,102442.29
2019-04-28T07:27:16.408Z,102443.63
2019-04-28T07:28:19.749Z,102442.05
2019-04-28T07:29:21.119Z,102442.41
2019-04-28T07:30:23.212Z,102446.33
2019-04-28T07:31:24.640Z,102449.02
2019-04-28T07:32:26.044Z,102443.99
2019-04-28T07:33:35.822Z,102440.67
2019-04-28T07:34:30.780Z,102446.89
2019-04-28T07:35:32.198Z,102442.26
2019-04-28T07:36:33.591Z,102441.74
2019-04-28T07:37:34.983Z,102443.96
2019-04-28T07:38:37.683Z,102440.76
2019-04-28T07:39:39.057Z,102437.97
2019-04-28T07:40:40.545Z,102445.70
2019-04-28T07:41:42.105Z,102446.54
2019-04-28T07:42:43.507Z,102447.58
2019-04-28T07:43:44.882Z,102447.23
2019-04-28T07:44:46.249Z,102448.27
2019-04-28T07:45:47.750Z,102448.23
2019-04-28T07:46:49.292Z,102439.43
2019-04-28T07:47:50.684Z,102452.31
2019-04-28T07:48:52.507Z,102461.33
2019-04-28T07:49:53.967Z,102458.51
2019-04-28T07:50:55.352Z,102462.75
2019-04-28T07:52:01.197Z,102462.28
2019-04-28T07:53:04.473Z,102467.16
2019-04-28T07:54:07.777Z,102462.63
2019-04-28T07:55:09.148Z,102465.81
2019-04-28T07:56:10.653Z,102468.39
2019-04-28T07:57:12.160Z,102471.72
2019-04-28T07:58:13.559Z,102473.19
2019-04-28T07:59:15.196Z,102473.19
2019-04-28T08:00:21.304Z,102477.39
2019-04-28T08:01:22.697Z,102472.98
2019-04-28T08:02:24.204Z,102477.52
2019-04-28T08:03:25.588Z,102471.05
2019-04-28T08:04:26.996Z,102471.05
2019-04-28T08:05:28.381Z,102476.08
2019-04-28T08:06:29.790Z,102478.94
2019-04-28T08:07:31.214Z,102480.28
2019-04-28T08:08:32.593Z,102482.59
2019-04-28T08:09:33.997Z,102482.74
2019-04-28T08:10:35.472Z,102480.32
2019-04-28T08:11:36.865Z,102484.01
2019-04-28T08:12:38.315Z,102489.88
2019-04-28T08:13:39.697Z,102488.69
2019-04-28T08:14:41.086Z,102488.69
2019-04-28T08:15:42.476Z,102492.38
2019-04-28T08:16:43.857Z,102500.94
2019-04-28T08:17:45.265Z,102494.83
2019-04-28T08:18:46.654Z,102499.75
2019-04-28T08:19:48.052Z,102500.59
2019-04-28T08:20:49.440Z,102502.09
2019-04-28T08:21:50.835Z,102503.44
2019-04-28T08:22:52.243Z,102506.61
2019-04-28T08:23:53.619Z,102509.45
2019-04-28T08:24:55.024Z,102502.84
2019-04-28T08:25:56.396Z,102504.81
2019-04-28T08:26:57.795Z,102505.69
2019-04-28T08:27:59.515Z,102505.80
2019-04-28T08:29:01.006Z,102509.85
2019-04-28T08:30:03.190Z,102504.61
2019-04-28T08:31:05.677Z,102508.30
2019-04-28T08:32:24.238Z,102506.55
2019-04-28T08:33:33.061Z,102510.24
2019-04-28T08:34:33.608Z,102505.72
2019-04-28T08:35:35.004Z,102513.92
2019-04-28T08:36:36.485Z,102508.33
2019-04-28T08:37:37.888Z,102514.47
2019-04-28T08:38:39.485Z,102513.27
2019-04-28T08:39:40.868Z,102514.73
2019-04-28T08:40:42.253Z,102518.42
2019-04-28T08:41:43.668Z,102516.71
2019-04-28T08:42:45.153Z,102515.00
2019-04-28T08:43:46.577Z,102516.35
2019-04-28T08:44:47.957Z,102521.38
2019-04-28T08:45:49.457Z,102518.33
2019-04-28T08:46:50.939Z,102513.92
2019-04-28T08:47:52.342Z,102524.71
2019-04-28T08:48:53.763Z,102516.73
2019-04-28T08:49:55.181Z,102511.83
2019-04-28T08:50:56.599Z,102509.49
2019-04-28T08:51:58.006Z,102515.87
2019-04-28T08:52:59.408Z,102516.23
2019-04-28T08:54:00.819Z,102520.27
2019-04-28T08:55:04.300Z,102514.88
2019-04-28T08:56:05.693Z,102516.86
2019-04-28T08:57:07.081Z,102516.62
2019-04-28T08:58:08.569Z,102522.49
2019-04-28T08:59:09.994Z,102519.44
2019-04-28T09:00:13.116Z,102522.97
2019-04-28T09:01:14.811Z,102522.97
2019-04-28T09:02:16.228Z,102526.05
2019-04-28T09:03:17.644Z,102527.41
2019-04-28T09:04:19.064Z,102529.62
2019-04-28T09:05:20.540Z,102534.14
2019-04-28T09:06:21.972Z,102530.09
2019-04-28T09:07:23.356Z,102531.33
2019-04-28T09:08:24.758Z,102537.56
2019-04-28T09:09:26.272Z,102536.57
2019-04-28T09:10:27.685Z,102532.89
2019-04-28T09:11:29.101Z,102539.27
2019-04-28T09:12:30.493Z,102533.76
2019-04-28T09:13:31.956Z,102534.23
2019-04-28T09:14:33.822Z,102540.86
2019-04-28T09:15:35.204Z,102535.95
2019-04-28T09:16:36.601Z,102534.95
2019-04-28T09:17:38.996Z,102536.30
2019-04-28T09:18:40.384Z,102536.30
2019-04-28T09:19:42.547Z,102529.20
2019-04-28T09:20:44.081Z,102535.47
2019-04-28T09:21:45.486Z,102542.68
2019-04-28T09:22:46.866Z,102534.59
2019-04-28T09:23:48.264Z,102529.56
2019-04-28T09:24:49.687Z,102527.38
2019-04-28T09:25:51.067Z,102531.91
2019-04-28T09:26:52.556Z,102535.95
2019-04-28T09:27:53.941Z,102541.70
2019-04-28T09:28:55.319Z,102541.34
2019-04-28T09:29:57.741Z,102544.03
2019-04-28T09:30:59.217Z,102541.34
2019-04-28T09:32:00.613Z,102543.19
2019-04-28T09:33:02.092Z,102545.73
2019-04-28T09:34:03.490Z,102527.86
2019-04-28T09:35:05.401Z,102545.37
2019-04-28T09:36:06.784Z,102541.34
2019-04-28T09:37:08.340Z,102537.65
2019-04-28T09:38:09.732Z,102540.70
2019-04-28T09:39:13.027Z,102545.83
2019-04-28T09:40:16.133Z,102537.74
2019-04-28T09:41:17.505Z,102544.22
2019-04-28T09:42:29.775Z,102542.23
2019-04-28T09:43:49.668Z,102546.16
2019-04-28T09:44:51.260Z,102536.45
2019-04-28T09:45:54.580Z,102544.27
2019-04-28T09:46:56.101Z,102541.84
2019-04-28T09:47:57.589Z,102548.11
2019-04-28T09:48:59.090Z,102544.19
2019-04-28T09:50:00.580Z,102548.23
2019-04-28T09:51:01.986Z,102547.00
2019-04-28T09:52:03.352Z,102549.70
2019-04-28T09:53:04.752Z,102548.86
2019-04-28T09:54:06.232Z,102552.03
2019-04-28T09:55:07.933Z,102542.23
2019-04-28T09:56:09.345Z,102549.34
2019-04-28T09:57:10.741Z,102550.69
2019-04-28T09:58:12.125Z,102547.98
2019-04-28T09:59:13.612Z,102559.28
2019-04-28T10:00:16.399Z,102552.03
2019-04-28T10:01:17.822Z,102547.88
2019-04-28T10:02:19.296Z,102549.09
2019-04-28T10:03:20.797Z,102554.49
2019-04-28T10:04:22.272Z,102551.28
2019-04-28T10:05:23.668Z,102547.12
2019-04-28T10:06:25.115Z,102563.30
2019-04-28T10:07:26.503Z,102550.18
2019-04-28T10:08:27.999Z,102546.97
2019-04-28T10:09:29.391Z,102550.03
2019-04-28T10:10:30.986Z,102556.77
2019-04-28T10:11:32.384Z,102551.26
2019-04-28T10:12:33.764Z,102557.48
2019-04-28T10:13:35.160Z,102561.17
2019-04-28T10:14:36.635Z,102557.12
2019-04-28T10:15:38.096Z,102557.12
2019-04-28T10:16:39.518Z,102555.78
2019-04-28T10:17:41.020Z,102560.70
2019-04-28T10:18:42.406Z,102556.50
2019-04-28T10:19:43.801Z,102559.70
2019-04-28T10:20:45.289Z,102559.08
2019-04-28T10:21:46.728Z,102560.42
2019-04-28T10:22:48.142Z,102556.38
2019-04-28T10:23:49.574Z,102550.98
2019-04-28T10:24:50.898Z,102555.03
2019-04-28T10:25:52.493Z,102552.34
2019-04-28T10:26:53.902Z,102554.16
2019-04-28T10:27:55.288Z,102558.09
2019-04-28T10:28:56.679Z,102557.58
2019-04-28T10:29:58.169Z,102551.34
2019-04-28T10:30:59.657Z,102558.09
2019-04-28T10:32:01.061Z,102557.45
2019-04-28T10:33:02.438Z,102557.58
2019-04-28T10:34:04.543Z,102553.89
2019-04-28T10:35:07.542Z,102557.45
2019-04-28T10:36:08.954Z,102558.30
2019-04-28T10:37:10.448Z,102558.30
2019-04-28T10:38:11.837Z,102554.61
2019-04-28T10:39:20.999Z,102562.22
2019-04-28T10:40:31.444Z,102559.52
2019-04-28T10:41:34.738Z,102557.55
2019-04-28T10:42:36.231Z,102556.56
2019-04-28T10:43:37.753Z,102557.55
2019-04-28T10:44:41.055Z,102561.59
2019-04-28T10:45:44.425Z,102558.53
2019-04-28T10:46:46.401Z,102558.53
2019-04-28T10:47:47.876Z,102564.77
2019-04-28T10:48:49.249Z,102561.23
2019-04-28T10:49:50.749Z,102562.58
2019-04-28T10:50:52.231Z,102563.93
2019-04-28T10:51:59.465Z,102558.17
2019-04-28T10:52:57.161Z,102559.16
2019-04-28T10:53:58.648Z,102559.52
2019-04-28T10:55:00.340Z,102561.71
2019-04-28T10:56:01.724Z,102558.17
2019-04-28T10:57:03.323Z,102561.86
2019-04-28T10:58:04.743Z,102558.30
2019-04-28T10:59:06.133Z,102561.35
2019-04-28T11:00:08.124Z,102564.41
2019-04-28T11:01:09.496Z,102561.71
2019-04-28T11:02:10.896Z,102557.66
2019-04-28T11:03:12.282Z,102562.58
2019-04-28T11:04:32.427Z,102561.71
2019-04-28T11:05:41.772Z,102559.16
2019-04-28T11:06:43.271Z,102567.34
2019-04-28T11:07:44.679Z,102567.46
2019-04-28T11:08:53.893Z,102562.85
2019-04-28T11:10:06.228Z,102561.14
2019-04-28T11:11:09.568Z,102565.19
2019-04-28T11:12:15.628Z,102560.78
2019-04-28T11:13:17.129Z,102562.41
2019-04-28T11:14:18.516Z,102563.24
2019-04-28T11:15:21.805Z,102563.75
2019-04-28T11:16:25.173Z,102558.00
2019-04-28T11:17:26.546Z,102562.77
2019-04-28T11:18:28.247Z,102563.48
2019-04-28T11:19:29.659Z,102563.84
2019-04-28T11:20:31.659Z,102563.33
2019-04-28T11:21:33.051Z,102562.34
2019-04-28T11:22:34.440Z,102565.91
2019-04-28T11:23:35.927Z,102566.27
2019-04-28T11:24:37.359Z,102564.41
2019-04-28T11:25:38.759Z,102562.94
2019-04-28T11:26:40.161Z,102559.88
2019-04-28T11:27:41.532Z,102566.47
2019-04-28T11:28:43.004Z,102564.41
2019-04-28T11:29:44.516Z,102559.52
2019-04-28T11:30:46.123Z,102564.05
2019-04-28T11:31:47.614Z,102560.52
2019-04-28T11:32:59.961Z,102567.73
2019-04-28T11:34:21.221Z,102566.27
2019-04-28T11:35:24.705Z,102563.21
2019-04-28T11:36:26.087Z,102562.22
2019-04-28T11:37:27.489Z,102566.90
2019-04-28T11:38:28.861Z,102564.83
2019-04-28T11:39:32.164Z,102556.02
2019-04-28T11:40:33.904Z,102564.47
2019-04-28T11:41:35.289Z,102553.33
2019-04-28T11:42:36.704Z,102557.73
2019-04-28T11:43:38.067Z,102561.41
2019-04-28T11:44:39.448Z,102561.77
2019-04-28T11:45:40.946Z,102565.31
2019-04-28T11:46:42.425Z,102567.02
2019-04-28T11:47:43.832Z,102568.87
2019-04-28T11:48:45.243Z,102571.42
2019-04-28T11:49:46.662Z,102570.07
2019-04-28T11:50:48.200Z,102566.54
2019-04-28T11:51:49.562Z,102572.30
2019-04-28T11:52:50.956Z,102573.64
2019-04-28T11:53:52.342Z,102570.07
2019-04-28T11:54:53.844Z,102567.38
2019-04-28T11:55:55.237Z,102573.01
2019-04-28T11:56:56.750Z,102576.06